Time;durP1;ratioP1;P1;durP2;ratioP2;P2;SDS_P1;SDS_P2;PMS_P1;PMS_P2;Temp;Humidity;BMP_temperature;BMP_pressure;BME280_temperature;BME280_humidity;BME280_pressure;Samples;Min_cycle;Max_cycle;Signal;HPM_P1;HPM_P2
2024/02/07 00:01:53;;;;;;;22.92;3.90;;;12.00;84.30;;;;;;5083272;28;20605;-81
2024/02/07 00:04:19;;;;;;;23.60;3.03;;;11.90;91.40;;;;;;5083978;28;20207;-82
2024/02/07 00:06:45;;;;;;;17.37;3.13;;;11.90;91.90;;;;;;5083922;28;20164;-82
2024/02/07 00:09:10;;;;;;;19.73;2.70;;;11.90;91.30;;;;;;5084360;28;20764;-82
2024/02/07 00:11:36;;;;;;;24.60;3.73;;;11.90;92.00;;;;;;5083064;28;20170;-83
2024/02/07 00:14:02;;;;;;;17.00;2.63;;;11.90;93.50;;;;;;5083173;28;20214;-82
2024/02/07 00:16:27;;;;;;;17.57;2.70;;;11.90;92.30;;;;;;5083507;28;20534;-82
2024/02/07 00:18:53;;;;;;;20.70;2.87;;;11.90;94.00;;;;;;5083330;28;20215;-82
2024/02/07 00:21:19;;;;;;;23.73;3.30;;;11.90;93.00;;;;;;5082882;28;20534;-83
2024/02/07 00:23:45;;;;;;;18.73;2.73;;;11.90;94.20;;;;;;5083528;28;20537;-82
2024/02/07 00:26:10;;;;;;;18.25;2.50;;;11.90;93.60;;;;;;5084400;28;20174;-82
2024/02/07 00:28:36;;;;;;;18.77;2.53;;;11.90;93.80;;;;;;5083482;28;20259;-82
2024/02/07 00:31:04;;;;;;;16.63;2.55;;;11.90;95.70;;;;;;5066331;28;20221;-82
2024/02/07 00:33:30;;;;;;;20.90;3.00;;;11.90;96.40;;;;;;5085104;28;20536;-83
2024/02/07 00:35:55;;;;;;;15.33;2.50;;;11.90;96.80;;;;;;5083782;28;20188;-83
2024/02/07 00:38:21;;;;;;;14.80;2.27;;;11.90;97.80;;;;;;5082739;28;20200;-82
2024/02/07 00:40:47;;;;;;;20.00;2.50;;;11.90;99.70;;;;;;5083134;28;20159;-82
2024/02/07 00:43:14;;;;;;;16.33;2.53;;;11.80;99.90;;;;;;5084156;28;20176;-82
2024/02/07 00:45:40;;;;;;;21.02;2.63;;;11.80;99.90;;;;;;5083341;28;20658;-83
2024/02/07 00:48:06;;;;;;;16.07;2.10;;;11.80;99.90;;;;;;5082273;28;20197;-82
2024/02/07 00:50:32;;;;;;;18.60;3.20;;;11.80;99.90;;;;;;5064001;28;20179;-82
2024/02/07 00:53:00;;;;;;;16.20;2.80;;;11.70;99.90;;;;;;5083141;28;20165;-81
2024/02/07 00:55:26;;;;;;;21.55;2.47;;;11.70;99.90;;;;;;5082124;28;20176;-82
2024/02/07 00:57:52;;;;;;;17.27;3.00;;;11.70;99.90;;;;;;5082071;28;20184;-81
2024/02/07 01:00:19;;;;;;;16.63;2.20;;;11.70;99.90;;;;;;5064539;28;20171;-82
2024/02/07 01:02:45;;;;;;;16.00;2.78;;;11.60;99.90;;;;;;5082847;28;20153;-82
2024/02/07 01:05:11;;;;;;;15.40;2.05;;;11.70;99.90;;;;;;5082429;28;20183;-82
2024/02/07 01:07:37;;;;;;;20.90;2.70;;;11.70;99.90;;;;;;5083022;28;20196;-83
2024/02/07 01:10:03;;;;;;;15.93;2.63;;;11.70;99.90;;;;;;5083208;28;20169;-82
2024/02/07 01:12:29;;;;;;;23.83;2.72;;;11.70;99.90;;;;;;5086013;28;20558;-82
2024/02/07 01:14:54;;;;;;;18.17;2.30;;;11.70;99.90;;;;;;5086129;28;20164;-82
2024/02/07 01:17:20;;;;;;;16.13;2.47;;;11.70;99.90;;;;;;5068197;28;20557;-81
2024/02/07 01:19:48;;;;;;;16.10;2.40;;;11.70;99.90;;;;;;5085801;28;20164;-82
2024/02/07 01:22:14;;;;;;;20.63;2.70;;;11.70;99.90;;;;;;5086653;28;20529;-82
2024/02/07 01:24:41;;;;;;;18.40;2.30;;;11.70;99.90;;;;;;5086188;28;20180;-82
2024/02/07 01:27:07;;;;;;;16.33;2.15;;;11.80;99.90;;;;;;5084906;28;20177;-81
2024/02/07 01:29:34;;;;;;;16.73;2.58;;;11.70;99.90;;;;;;5065528;28;20198;-82
2024/02/07 01:31:59;;;;;;;17.38;2.60;;;11.80;99.90;;;;;;5065274;28;20188;-82
2024/02/07 01:34:25;;;;;;;18.00;2.07;;;11.70;99.90;;;;;;5082372;28;20168;-81
2024/02/07 01:36:51;;;;;;;15.90;2.50;;;11.70;99.90;;;;;;5064335;28;20234;-82
2024/02/07 01:39:18;;;;;;;26.30;2.40;;;11.70;99.90;;;;;;5083394;28;20259;-82
2024/02/07 01:41:59;;;;;;;15.75;2.72;;;11.70;99.90;;;;;;5082443;28;20180;-81
2024/02/07 01:44:25;;;;;;;15.95;2.55;;;11.60;99.90;;;;;;5065277;28;20156;-82
2024/02/07 01:46:52;;;;;;;16.95;3.17;;;11.60;99.90;;;;;;5082848;28;20252;-82
2024/02/07 01:49:19;;;;;;;16.30;2.42;;;11.60;99.90;;;;;;5083274;28;20176;-82
2024/02/07 01:51:46;;;;;;;16.90;2.50;;;11.60;99.90;;;;;;5083030;28;20168;-81
2024/02/07 01:54:12;;;;;;;15.82;2.58;;;11.60;99.90;;;;;;5082851;28;20196;-81
2024/02/07 01:56:42;;;;;;;15.80;2.10;;;11.60;99.90;;;;;;5064366;28;20207;-81
2024/02/07 01:59:08;;;;;;;17.17;2.70;;;11.60;99.90;;;;;;5082305;28;20399;-82
2024/02/07 02:01:36;;;;;;;16.55;2.50;;;11.60;99.90;;;;;;5082354;28;20177;-82
2024/02/07 02:04:02;;;;;;;16.33;2.67;;;11.50;99.90;;;;;;5082402;28;20167;-81
2024/02/07 02:06:28;;;;;;;17.63;2.65;;;11.50;99.90;;;;;;5081998;28;20172;-81
2024/02/07 02:08:54;;;;;;;17.47;3.07;;;11.50;99.90;;;;;;5081136;28;20199;-82
2024/02/07 02:11:26;;;;;;;19.00;3.13;;;11.60;99.90;;;;;;5081245;28;20188;-82
2024/02/07 02:13:54;;;;;;;17.80;2.63;;;11.60;99.90;;;;;;5081020;28;20379;-80
2024/02/07 02:16:19;;;;;;;15.50;2.78;;;11.50;99.90;;;;;;5080302;28;20224;-82
2024/02/07 02:18:45;;;;;;;18.63;2.97;;;11.50;99.90;;;;;;5061722;28;20230;-80
2024/02/07 02:21:21;;;;;;;16.20;2.50;;;11.50;99.90;;;;;;5078488;28;20160;-79
2024/02/07 02:24:24;;;;;;;19.33;3.55;;;11.50;99.90;;;;;;5060417;28;20153;-80
2024/02/07 02:27:15;;;;;;;18.10;2.60;;;11.50;99.90;;;;;;5078846;28;20672;-80
2024/02/07 02:29:53;;;;;;;21.55;2.92;;;11.40;99.90;;;;;;5059520;28;20176;-80
2024/02/07 02:32:21;;;;;;;15.30;2.20;;;11.50;99.90;;;;;;5077254;28;20156;-80
2024/02/07 02:34:50;;;;;;;16.63;2.40;;;11.40;99.90;;;;;;5077103;28;20775;-80
2024/02/07 02:37:15;;;;;;;16.58;2.35;;;11.40;99.90;;;;;;5076813;28;20220;-80
2024/02/07 02:39:41;;;;;;;18.50;2.57;;;11.40;99.90;;;;;;5076575;28;20184;-80
2024/02/07 02:42:07;;;;;;;18.93;2.80;;;11.40;99.90;;;;;;5076743;28;20165;-80
2024/02/07 02:44:33;;;;;;;17.73;2.30;;;11.40;99.90;;;;;;5076819;28;20169;-80
2024/02/07 02:47:02;;;;;;;18.33;2.43;;;11.40;99.90;;;;;;5076647;28;20445;-80
2024/02/07 02:49:28;;;;;;;19.52;2.78;;;11.40;99.90;;;;;;5077103;28;20510;-80
2024/02/07 02:51:55;;;;;;;18.75;2.75;;;11.40;99.90;;;;;;5077549;28;20187;-79
2024/02/07 02:54:21;;;;;;;19.98;2.70;;;11.50;99.90;;;;;;5059233;28;20183;-80
2024/02/07 02:56:47;;;;;;;15.07;2.10;;;11.50;99.90;;;;;;5077155;28;20192;-80
2024/02/07 02:59:14;;;;;;;15.95;1.80;;;11.50;99.90;;;;;;5059730;28;20411;-81
2024/02/07 03:01:40;;;;;;;14.65;1.85;;;11.50;99.90;;;;;;5059484;28;20161;-80
2024/02/07 03:04:06;;;;;;;16.85;2.08;;;11.40;99.90;;;;;;5077477;28;20637;-82
2024/02/07 03:06:50;;;;;;;16.52;2.92;;;11.40;99.90;;;;;;5075705;28;20175;-79
2024/02/07 03:09:21;;;;;;;17.65;2.60;;;11.50;99.90;;;;;;5075279;28;20153;-79
2024/02/07 03:11:49;;;;;;;20.77;2.58;;;11.40;99.90;;;;;;5075092;28;20160;-79
2024/02/07 03:14:15;;;;;;;19.42;2.25;;;11.40;99.90;;;;;;5076151;28;20255;-80
2024/02/07 03:16:41;;;;;;;17.58;3.13;;;11.40;99.90;;;;;;5074700;28;20185;-79
2024/02/07 03:19:08;;;;;;;16.07;1.87;;;11.30;99.90;;;;;;5075074;28;20188;-79
2024/02/07 03:21:33;;;;;;;16.98;2.25;;;11.30;99.90;;;;;;5057230;28;20604;-79
2024/02/07 03:23:59;;;;;;;14.30;1.80;;;11.30;99.90;;;;;;5076115;28;20161;-79
2024/02/07 03:26:25;;;;;;;16.83;1.97;;;11.30;99.90;;;;;;5076699;28;20425;-80
2024/02/07 03:28:54;;;;;;;14.20;1.35;;;11.40;99.90;;;;;;5075179;28;20184;-79
2024/02/07 03:31:20;;;;;;;16.85;2.00;;;11.40;99.90;;;;;;5076872;28;20172;-81
2024/02/07 03:33:47;;;;;;;15.60;2.20;;;11.40;99.90;;;;;;5057594;28;20547;-80
2024/02/07 03:36:13;;;;;;;17.25;2.08;;;11.30;99.90;;;;;;5076192;28;20201;-81
2024/02/07 03:38:40;;;;;;;14.95;1.80;;;11.40;99.90;;;;;;5076749;28;20203;-79
2024/02/07 03:41:06;;;;;;;13.90;1.30;;;11.40;99.90;;;;;;5074454;28;20169;-79
2024/02/07 03:43:33;;;;;;;14.20;1.33;;;11.40;99.90;;;;;;5075047;28;20614;-80
2024/02/07 03:46:00;;;;;;;19.17;1.45;;;11.40;99.90;;;;;;5074741;28;20414;-79
2024/02/07 03:48:27;;;;;;;16.08;1.92;;;11.40;99.90;;;;;;5074002;28;20185;-79
2024/02/07 03:50:53;;;;;;;14.18;1.52;;;11.50;99.90;;;;;;5074333;28;20164;-79
2024/02/07 03:53:21;;;;;;;14.00;1.50;;;11.50;99.90;;;;;;5074350;28;20161;-80
2024/02/07 03:55:48;;;;;;;14.40;1.60;;;11.40;99.90;;;;;;5074349;28;20223;-79
2024/02/07 03:58:13;;;;;;;14.18;1.70;;;11.40;99.90;;;;;;5073988;28;20181;-79
2024/02/07 04:00:39;;;;;;;16.00;1.60;;;11.40;99.90;;;;;;5073957;28;20678;-79
2024/02/07 04:03:05;;;;;;;14.30;1.40;;;11.40;99.90;;;;;;5073831;28;20456;-79
2024/02/07 04:05:30;;;;;;;15.30;1.40;;;11.30;99.90;;;;;;5073768;28;20164;-79
2024/02/07 04:07:57;;;;;;;14.00;1.63;;;11.30;99.90;;;;;;5074436;28;20259;-80
2024/02/07 04:10:23;;;;;;;15.00;1.95;;;11.30;99.90;;;;;;5074443;28;20175;-79
2024/02/07 05:15:35;;;;;;;14.90;1.38;;;10.80;99.90;;;;;;5073545;28;20159;-78
2024/02/07 05:18:00;;;;;;;14.83;1.53;;;10.90;99.90;;;;;;5073048;28;20181;-78
2024/02/07 05:20:26;;;;;;;14.93;1.73;;;10.90;99.90;;;;;;5073611;28;20165;-79
2024/02/07 05:22:52;;;;;;;14.30;1.53;;;10.90;99.90;;;;;;5073314;28;20252;-78
2024/02/07 05:25:18;;;;;;;15.70;1.57;;;10.90;99.90;;;;;;5073466;28;20164;-78
2024/02/07 05:27:43;;;;;;;13.90;1.17;;;10.90;99.90;;;;;;5073227;28;20607;-79
2024/02/07 05:30:14;;;;;;;14.40;1.20;;;10.90;99.90;;;;;;5073470;28;20577;-79
2024/02/07 05:32:40;;;;;;;15.25;1.63;;;10.90;99.90;;;;;;5073730;28;20156;-78
2024/02/07 05:35:06;;;;;;;13.80;1.50;;;10.90;99.90;;;;;;5055220;28;20177;-78
2024/02/07 05:37:32;;;;;;;17.10;2.00;;;10.90;99.90;;;;;;5073898;28;20987;-78
2024/02/07 05:39:58;;;;;;;17.70;2.90;;;10.80;99.90;;;;;;5072982;28;20468;-79
2024/02/07 05:42:24;;;;;;;20.07;3.30;;;10.10;99.90;;;;;;5072892;28;20168;-79
2024/02/07 05:44:50;;;;;;;18.47;3.90;;;9.70;99.90;;;;;;5054881;28;20502;-79
2024/02/07 05:47:16;;;;;;;15.90;3.10;;;9.40;99.90;;;;;;5072670;28;20525;-79
2024/02/07 05:49:44;;;;;;;16.43;2.40;;;9.00;99.90;;;;;;5072824;28;20251;-79
2024/02/07 05:52:10;;;;;;;15.45;2.30;;;8.60;99.90;;;;;;5072901;28;20403;-79
2024/02/07 05:54:36;;;;;;;15.63;2.28;;;8.40;99.90;;;;;;5072635;28;20274;-79
2024/02/07 05:57:02;;;;;;;14.77;1.63;;;8.40;99.90;;;;;;5075759;28;20208;-78
2024/02/07 05:59:28;;;;;;;14.40;1.50;;;8.20;99.90;;;;;;5076619;28;20426;-79
2024/02/07 06:01:54;;;;;;;15.98;1.25;;;8.00;99.90;;;;;;5076204;28;20625;-79
2024/02/07 06:04:21;;;;;;;14.27;1.20;;;7.80;99.90;;;;;;5076319;28;20247;-79
2024/02/07 06:06:47;;;;;;;15.65;1.63;;;7.70;99.90;;;;;;5076132;28;20414;-79
2024/02/07 06:09:13;;;;;;;19.87;2.00;;;7.60;99.90;;;;;;5076960;28;20177;-79
2024/02/07 06:11:41;;;;;;;14.50;1.30;;;7.50;99.90;;;;;;5076150;28;20411;-79
2024/02/07 06:14:08;;;;;;;15.40;1.60;;;7.50;99.90;;;;;;5076009;28;20164;-79
2024/02/07 06:16:34;;;;;;;15.85;1.38;;;7.50;99.90;;;;;;5075930;28;20214;-79
2024/02/07 06:19:00;;;;;;;15.57;1.20;;;7.50;99.90;;;;;;5075914;28;20153;-79
2024/02/07 06:21:27;;;;;;;14.60;1.23;;;7.40;99.90;;;;;;5076085;28;20159;-79
2024/02/07 06:23:53;;;;;;;14.40;1.20;;;7.30;99.90;;;;;;5058124;28;20173;-80
2024/02/07 06:26:18;;;;;;;14.90;1.40;;;7.30;99.90;;;;;;5075694;28;20218;-79
2024/02/07 06:28:47;;;;;;;16.40;1.27;;;7.40;99.90;;;;;;5075870;28;20188;-78
2024/02/07 06:31:12;;;;;;;15.35;1.15;;;7.30;99.90;;;;;;5075677;28;20179;-79
2024/02/07 06:33:39;;;;;;;15.20;1.67;;;7.20;99.90;;;;;;5057671;28;20168;-79
2024/02/07 06:36:05;;;;;;;16.00;1.77;;;7.20;99.90;;;;;;5075505;28;20188;-79
2024/02/07 06:38:30;;;;;;;14.80;1.70;;;7.20;99.90;;;;;;5075612;28;20249;-79
2024/02/07 06:40:56;;;;;;;16.97;1.77;;;7.20;99.90;;;;;;5075547;28;20164;-79
2024/02/07 06:43:22;;;;;;;14.17;1.50;;;7.30;99.90;;;;;;5075936;28;20172;-79
2024/02/07 06:45:48;;;;;;;17.10;2.17;;;7.20;99.90;;;;;;5075535;28;20218;-79
2024/02/07 06:48:13;;;;;;;17.40;2.17;;;7.10;99.90;;;;;;5075169;28;20426;-79
2024/02/07 06:50:39;;;;;;;18.03;1.93;;;7.10;99.90;;;;;;5075656;28;20157;-78
2024/02/07 06:53:05;;;;;;;15.10;2.00;;;7.10;99.90;;;;;;5075416;28;20165;-79
2024/02/07 06:55:31;;;;;;;15.10;1.80;;;7.20;99.90;;;;;;5074994;28;20160;-79
2024/02/07 06:57:56;;;;;;;17.30;2.47;;;7.30;99.90;;;;;;5075189;28;20184;-79
2024/02/07 07:00:23;;;;;;;15.17;2.10;;;7.30;99.90;;;;;;5074903;28;20403;-79
2024/02/07 07:02:49;;;;;;;15.68;1.95;;;7.30;99.90;;;;;;5075016;28;20161;-79
2024/02/07 07:05:15;;;;;;;15.60;1.90;;;7.30;99.90;;;;;;5074868;28;20215;-79
2024/02/07 07:07:40;;;;;;;15.80;2.37;;;7.30;99.90;;;;;;5073922;28;20188;-79
2024/02/07 07:10:06;;;;;;;14.80;2.07;;;7.30;99.90;;;;;;5074947;28;20530;-79
2024/02/07 07:12:32;;;;;;;16.10;2.50;;;7.20;99.90;;;;;;5074784;28;20588;-79
2024/02/07 07:14:58;;;;;;;16.63;2.70;;;7.20;99.90;;;;;;5074661;28;20173;-79
2024/02/07 07:17:23;;;;;;;17.07;2.87;;;7.20;99.90;;;;;;5074911;28;20228;-79
2024/02/07 07:19:49;;;;;;;16.23;2.80;;;7.20;99.90;;;;;;5074452;28;20214;-80
2024/02/07 07:22:15;;;;;;;16.07;2.50;;;7.10;99.90;;;;;;5074554;28;20169;-80
2024/02/07 07:24:40;;;;;;;17.60;3.00;;;7.20;99.90;;;;;;5056837;28;20187;-80
2024/02/07 07:27:06;;;;;;;15.50;3.10;;;7.20;99.90;;;;;;5056399;28;20192;-80
2024/02/07 07:29:32;;;;;;;16.47;2.60;;;7.10;99.90;;;;;;5074770;28;20664;-80
2024/02/07 07:31:57;;;;;;;15.20;2.60;;;7.20;99.90;;;;;;5056260;28;20660;-80
2024/02/07 07:34:23;;;;;;;14.97;1.90;;;7.20;99.90;;;;;;5074455;28;20248;-80
2024/02/07 07:36:51;;;;;;;15.50;2.50;;;7.20;99.90;;;;;;5074103;28;20196;-80
2024/02/07 07:39:17;;;;;;;15.60;2.40;;;7.20;99.90;;;;;;5074061;28;20180;-80
2024/02/07 07:41:42;;;;;;;16.00;2.17;;;7.20;99.90;;;;;;5074052;28;20161;-80
2024/02/07 07:44:08;;;;;;;19.27;2.50;;;7.10;99.90;;;;;;5074291;28;20169;-80
2024/02/07 07:46:34;;;;;;;15.97;2.23;;;7.10;99.90;;;;;;5074077;28;20171;-79
2024/02/07 07:49:00;;;;;;;17.50;2.03;;;7.00;99.90;;;;;;5074265;28;20171;-79
2024/02/07 07:51:26;;;;;;;17.33;2.15;;;6.90;99.90;;;;;;5074198;28;20179;-80
2024/02/07 07:53:52;;;;;;;17.13;2.00;;;6.80;99.90;;;;;;5074701;28;20766;-80
2024/02/07 07:56:20;;;;;;;15.32;2.00;;;6.80;99.90;;;;;;5074392;28;20561;-80
2024/02/07 07:58:48;;;;;;;16.38;2.15;;;6.80;99.90;;;;;;5074104;28;20185;-80
2024/02/07 08:01:15;;;;;;;17.63;1.92;;;6.70;99.90;;;;;;5074317;28;20218;-80
2024/02/07 08:03:40;;;;;;;15.32;1.83;;;6.70;99.90;;;;;;5074201;28;20161;-82
2024/02/07 08:06:08;;;;;;;16.47;2.80;;;6.90;99.90;;;;;;5056101;28;20175;-79
2024/02/07 08:08:34;;;;;;;15.32;2.10;;;6.80;99.90;;;;;;5074047;28;20185;-79
2024/02/07 08:11:01;;;;;;;15.98;2.38;;;6.80;99.90;;;;;;5056126;28;20247;-80
2024/02/07 08:13:27;;;;;;;17.10;2.15;;;6.80;99.90;;;;;;5074332;28;20172;-79
2024/02/07 08:15:53;;;;;;;15.95;2.13;;;6.70;99.90;;;;;;5074061;28;20671;-79
2024/02/07 08:18:18;;;;;;;18.70;2.60;;;6.80;99.90;;;;;;5074287;28;20184;-79
2024/02/07 08:20:44;;;;;;;17.97;2.90;;;6.80;99.90;;;;;;5074225;28;20585;-80
2024/02/07 08:23:11;;;;;;;17.33;3.10;;;6.80;99.90;;;;;;5073840;28;20530;-80
2024/02/07 08:25:37;;;;;;;17.20;2.78;;;6.80;99.90;;;;;;5055579;28;20179;-79
2024/02/07 08:28:03;;;;;;;16.93;2.80;;;6.90;99.90;;;;;;5073695;28;20177;-79
2024/02/07 08:30:29;;;;;;;16.13;2.90;;;6.90;99.90;;;;;;5073699;28;20169;-79
2024/02/07 08:32:55;;;;;;;15.80;2.63;;;7.00;99.90;;;;;;5055584;28;20435;-79
2024/02/07 08:35:21;;;;;;;15.95;2.80;;;7.00;99.90;;;;;;5073360;28;20156;-79
2024/02/07 08:37:47;;;;;;;16.17;2.63;;;7.10;99.90;;;;;;5073302;28;20551;-79
2024/02/07 08:40:13;;;;;;;17.15;2.60;;;7.20;99.90;;;;;;5073405;28;20153;-80
2024/02/07 08:42:39;;;;;;;17.63;3.03;;;7.00;99.90;;;;;;5073650;28;20210;-79
2024/02/07 08:45:05;;;;;;;18.13;2.03;;;7.10;99.90;;;;;;5055683;28;20164;-79
2024/02/07 08:47:31;;;;;;;20.50;2.33;;;6.90;99.90;;;;;;5073940;28;20665;-79
2024/02/07 08:49:57;;;;;;;15.30;1.87;;;6.90;99.90;;;;;;5073530;28;20204;-80
2024/02/07 08:52:23;;;;;;;16.87;2.03;;;7.00;99.90;;;;;;5073352;28;20180;-80
2024/02/07 08:54:49;;;;;;;18.50;2.40;;;7.00;99.90;;;;;;5073546;28;20405;-80
2024/02/07 08:57:15;;;;;;;15.63;1.90;;;7.10;99.90;;;;;;5073500;28;20558;-81
2024/02/07 08:59:40;;;;;;;16.80;2.43;;;7.10;99.90;;;;;;5057612;28;20168;-81
2024/02/07 09:02:09;;;;;;;15.50;2.00;;;7.20;99.90;;;;;;5074401;28;20390;-79
2024/02/07 09:04:35;;;;;;;16.20;2.30;;;7.20;99.90;;;;;;5074370;28;20232;-80
2024/02/07 09:07:00;;;;;;;17.73;2.40;;;7.20;99.90;;;;;;5073591;28;20270;-80
2024/02/07 09:09:26;;;;;;;18.90;2.77;;;7.30;99.90;;;;;;5074118;28;20560;-81
2024/02/07 09:11:52;;;;;;;15.90;2.13;;;7.20;99.90;;;;;;5074090;28;20172;-80
2024/02/07 09:14:19;;;;;;;18.38;2.20;;;7.30;99.90;;;;;;5055278;28;20191;-79
2024/02/07 09:16:45;;;;;;;21.75;2.67;;;7.20;99.90;;;;;;5073120;28;20179;-79
2024/02/07 09:19:10;;;;;;;14.80;1.70;;;7.20;99.90;;;;;;5073140;28;20576;-79
2024/02/07 09:21:36;;;;;;;16.33;1.83;;;7.10;99.90;;;;;;5073284;28;20214;-79
2024/02/07 09:24:04;;;;;;;15.10;1.60;;;7.10;99.90;;;;;;5055202;28;20177;-79
2024/02/07 09:26:30;;;;;;;15.50;1.70;;;7.00;99.90;;;;;;5055199;28;20260;-79
2024/02/07 09:28:56;;;;;;;15.00;1.73;;;7.00;99.90;;;;;;5073850;28;20184;-79
2024/02/07 09:31:22;;;;;;;14.97;1.53;;;6.90;99.90;;;;;;5075964;28;20234;-79
2024/02/07 09:33:47;;;;;;;15.00;1.60;;;6.90;99.90;;;;;;5077125;28;20642;-79
2024/02/07 09:36:13;;;;;;;16.87;2.43;;;7.00;99.90;;;;;;5076849;28;20216;-80
2024/02/07 09:38:39;;;;;;;16.73;1.70;;;7.00;99.90;;;;;;5076469;28;20192;-79
2024/02/07 09:41:05;;;;;;;18.20;1.80;;;7.00;99.90;;;;;;5078495;28;20625;-82
2024/02/07 09:43:32;;;;;;;15.85;2.00;;;6.90;99.90;;;;;;5060818;28;20153;-80
2024/02/07 09:45:58;;;;;;;14.55;1.50;;;6.70;99.90;;;;;;5077185;28;20183;-79
2024/02/07 09:48:26;;;;;;;15.48;1.67;;;6.70;99.90;;;;;;5077209;28;20184;-80
2024/02/07 09:50:54;;;;;;;16.98;2.28;;;6.60;99.90;;;;;;5077561;28;20169;-80
2024/02/07 09:53:23;;;;;;;15.95;2.00;;;6.70;99.90;;;;;;5077110;28;20172;-79
2024/02/07 09:55:53;;;;;;;17.70;1.83;;;6.80;99.90;;;;;;5077509;28;20622;-79
2024/02/07 09:58:22;;;;;;;14.60;1.60;;;6.80;99.90;;;;;;5076384;28;20549;-79
2024/02/07 10:00:50;;;;;;;18.70;1.60;;;6.80;99.90;;;;;;5076645;28;20156;-79
2024/02/07 10:03:18;;;;;;;16.20;1.55;;;6.90;99.90;;;;;;5058447;28;20545;-79
2024/02/07 10:05:51;;;;;;;16.80;2.33;;;6.90;99.90;;;;;;5076607;28;20184;-79
2024/02/07 10:08:17;;;;;;;14.45;1.45;;;6.90;99.90;;;;;;5058247;28;20184;-79
2024/02/07 10:10:49;;;;;;;16.48;1.52;;;6.90;99.90;;;;;;5076414;28;20172;-80
2024/02/07 10:13:16;;;;;;;16.52;1.90;;;7.00;99.90;;;;;;5059056;28;20145;-80
2024/02/07 10:15:43;;;;;;;15.93;2.10;;;7.00;99.90;;;;;;5076199;28;20199;-79
2024/02/07 10:18:12;;;;;;;16.38;1.80;;;7.00;99.90;;;;;;5057962;28;20267;-79
2024/02/07 10:20:38;;;;;;;16.25;1.65;;;7.00;99.90;;;;;;5075776;28;20161;-79
2024/02/07 10:23:08;;;;;;;19.13;2.35;;;7.00;99.90;;;;;;5058228;28;20218;-79
2024/02/07 10:25:34;;;;;;;16.77;2.30;;;7.10;99.90;;;;;;5076033;28;20658;-79
2024/02/07 10:28:06;;;;;;;14.95;2.00;;;7.10;99.90;;;;;;5075930;28;20264;-80
2024/02/07 10:30:32;;;;;;;17.98;2.58;;;7.20;99.90;;;;;;5076162;28;20668;-79
2024/02/07 10:32:59;;;;;;;17.88;2.17;;;7.20;99.90;;;;;;5057787;28;20584;-79
2024/02/07 10:35:25;;;;;;;14.80;1.95;;;7.20;99.90;;;;;;5058216;28;20156;-79
2024/02/07 10:37:53;;;;;;;16.90;2.45;;;7.20;99.90;;;;;;5075975;28;20216;-79
2024/02/07 10:40:20;;;;;;;15.45;2.50;;;7.20;99.90;;;;;;5075775;28;20149;-80
2024/02/07 10:42:55;;;;;;;16.52;2.10;;;7.10;99.90;;;;;;5057670;28;20253;-80
2024/02/07 10:45:20;;;;;;;14.48;1.70;;;7.00;99.90;;;;;;5057493;28;20537;-79
2024/02/07 10:47:46;;;;;;;18.30;2.13;;;7.00;99.90;;;;;;5057527;28;20203;-79
2024/02/07 10:50:12;;;;;;;18.27;2.77;;;7.00;99.90;;;;;;5075916;28;20177;-79
2024/02/07 10:52:40;;;;;;;16.00;2.10;;;7.00;99.90;;;;;;5075503;28;20168;-80
2024/02/07 10:55:08;;;;;;;18.77;2.13;;;6.90;99.90;;;;;;5075427;28;20164;-80
2024/02/07 10:57:38;;;;;;;17.90;2.58;;;6.70;99.90;;;;;;5075690;28;20537;-80
2024/02/07 11:00:08;;;;;;;19.20;2.00;;;6.60;99.90;;;;;;5075293;28;20157;-80
2024/02/07 11:02:34;;;;;;;19.17;3.15;;;6.40;99.90;;;;;;5057460;28;20164;-80
2024/02/07 11:05:00;;;;;;;16.60;1.90;;;6.50;99.90;;;;;;5075088;28;20165;-80
2024/02/07 11:07:26;;;;;;;16.65;2.17;;;6.60;99.90;;;;;;5057155;28;20192;-80
2024/02/07 11:09:53;;;;;;;15.40;1.67;;;6.40;99.90;;;;;;5057161;28;20172;-80
2024/02/07 11:12:20;;;;;;;19.75;2.85;;;6.40;99.90;;;;;;5075111;28;20768;-80
2024/02/07 11:14:50;;;;;;;16.80;2.45;;;6.40;99.90;;;;;;5075079;28;20168;-80
2024/02/07 11:17:16;;;;;;;15.73;1.80;;;6.40;99.90;;;;;;5074945;28;20188;-80
2024/02/07 11:19:46;;;;;;;16.02;2.05;;;6.40;99.90;;;;;;5075532;28;20191;-81
2024/02/07 11:22:42;;;;;;;17.27;2.45;;;6.50;99.90;;;;;;5075413;28;20226;-81
2024/02/07 11:25:10;;;;;;;17.45;2.00;;;6.50;99.90;;;;;;5072800;28;20177;-79
2024/02/07 11:27:41;;;;;;;20.23;2.38;;;6.60;99.90;;;;;;5074528;28;20184;-79
2024/02/07 11:30:10;;;;;;;17.88;1.67;;;6.70;99.90;;;;;;5075029;28;20514;-79
2024/02/07 11:32:39;;;;;;;14.40;1.30;;;6.70;99.90;;;;;;5057646;28;20175;-80
2024/02/07 11:35:09;;;;;;;17.80;1.90;;;6.80;99.90;;;;;;5074968;28;20648;-79
2024/02/07 11:37:39;;;;;;;17.33;2.15;;;6.80;99.90;;;;;;5074203;28;20192;-79
2024/02/07 11:40:06;;;;;;;17.98;2.05;;;6.70;99.90;;;;;;5056545;28;20533;-79
2024/02/07 11:42:38;;;;;;;15.55;1.52;;;6.50;99.90;;;;;;5074385;28;20168;-79
2024/02/07 11:45:05;;;;;;;15.60;1.60;;;6.40;99.90;;;;;;5056606;28;20290;-79
2024/02/07 11:47:35;;;;;;;15.43;1.60;;;6.40;99.90;;;;;;5074216;28;20609;-79
2024/02/07 11:50:05;;;;;;;14.20;1.25;;;6.50;99.90;;;;;;5056191;28;20164;-79
2024/02/07 11:52:39;;;;;;;17.20;1.75;;;6.60;99.90;;;;;;5074336;28;20257;-79
2024/02/07 11:55:16;;;;;;;15.98;1.83;;;6.50;99.90;;;;;;5056126;28;20160;-80
2024/02/07 11:57:47;;;;;;;15.68;1.63;;;6.20;99.90;;;;;;5056036;28;20212;-79
2024/02/07 12:00:16;;;;;;;14.50;1.52;;;6.10;99.90;;;;;;5074269;28;20165;-79
2024/02/07 12:02:51;;;;;;;16.77;1.20;;;6.00;99.90;;;;;;5055889;28;20582;-80
2024/02/07 12:05:18;;;;;;;16.48;1.33;;;6.10;99.90;;;;;;5073891;28;20236;-79
2024/02/07 12:07:47;;;;;;;18.80;1.30;;;6.10;99.90;;;;;;5073819;28;20238;-79
2024/02/07 12:10:12;;;;;;;18.30;1.52;;;6.00;99.90;;;;;;5073845;28;20534;-80
2024/02/07 12:12:38;;;;;;;17.27;1.90;;;6.00;99.90;;;;;;5073721;28;20165;-79
2024/02/07 12:15:05;;;;;;;17.30;1.93;;;6.00;99.90;;;;;;5055939;28;20437;-79
2024/02/07 12:17:39;;;;;;;15.88;1.25;;;5.90;99.90;;;;;;5073546;28;20531;-80
2024/02/07 12:20:06;;;;;;;16.65;1.10;;;5.90;99.90;;;;;;5073922;28;20175;-79
2024/02/07 12:22:33;;;;;;;16.50;1.10;;;5.90;99.90;;;;;;5055776;28;20168;-79
2024/02/07 12:25:00;;;;;;;16.17;1.50;;;5.80;99.90;;;;;;5055840;28;20188;-79
2024/02/07 12:27:26;;;;;;;13.75;0.95;;;5.70;99.90;;;;;;5073669;28;20601;-79
2024/02/07 12:29:54;;;;;;;15.70;1.27;;;5.70;99.90;;;;;;5055562;28;20196;-79
2024/02/07 12:32:20;;;;;;;16.75;1.20;;;5.70;99.90;;;;;;5073439;28;20160;-79
2024/02/07 12:34:47;;;;;;;15.10;1.45;;;5.70;99.90;;;;;;5056128;28;20317;-79
2024/02/07 12:37:19;;;;;;;18.17;1.35;;;5.70;99.90;;;;;;5073152;28;20287;-79
2024/02/07 12:39:49;;;;;;;17.67;1.73;;;5.80;99.90;;;;;;5055691;28;20674;-79
2024/02/07 12:42:26;;;;;;;15.88;1.85;;;5.80;99.90;;;;;;5072632;28;20561;-79
2024/02/07 12:44:52;;;;;;;16.08;2.03;;;5.70;99.90;;;;;;5072812;28;20156;-79
2024/02/07 12:47:21;;;;;;;19.25;1.70;;;5.80;99.90;;;;;;5073084;28;20557;-79
2024/02/07 12:49:48;;;;;;;19.15;1.70;;;5.80;99.90;;;;;;5072630;28;20202;-79
2024/02/07 12:52:15;;;;;;;14.60;1.10;;;5.70;99.90;;;;;;5072325;28;20172;-79
2024/02/07 12:54:41;;;;;;;15.95;1.50;;;5.80;99.90;;;;;;5072617;28;20214;-79
2024/02/07 12:57:18;;;;;;;16.52;1.30;;;5.90;99.90;;;;;;5072462;28;20772;-79
2024/02/07 12:59:44;;;;;;;19.60;2.45;;;5.70;99.90;;;;;;5072671;28;20581;-79
2024/02/07 13:02:13;;;;;;;15.67;1.40;;;5.70;99.90;;;;;;5072453;28;20236;-80
2024/02/07 13:04:38;;;;;;;17.95;2.08;;;5.70;99.90;;;;;;5054343;28;20171;-79
2024/02/07 13:07:10;;;;;;;16.70;1.83;;;5.70;99.90;;;;;;5075928;28;20181;-80
2024/02/07 13:09:35;;;;;;;15.40;1.30;;;5.70;99.90;;;;;;5075952;28;20148;-79
2024/02/07 13:12:02;;;;;;;15.50;1.30;;;5.70;99.90;;;;;;5076349;28;20179;-79
2024/02/07 13:14:27;;;;;;;15.77;1.52;;;5.70;99.90;;;;;;5075747;28;20406;-80
2024/02/07 13:16:53;;;;;;;15.40;1.50;;;5.60;99.90;;;;;;5075701;28;20222;-79
2024/02/07 13:19:19;;;;;;;15.93;1.30;;;5.60;99.90;;;;;;5075837;28;20652;-79
2024/02/07 13:21:45;;;;;;;14.80;1.23;;;5.60;99.90;;;;;;5076252;28;20167;-79
2024/02/07 13:24:16;;;;;;;16.35;1.83;;;5.70;99.90;;;;;;5076210;28;20149;-79
2024/02/07 13:26:42;;;;;;;16.90;1.35;;;5.60;99.90;;;;;;5057709;28;20645;-79
2024/02/07 13:29:08;;;;;;;15.40;1.50;;;5.60;99.90;;;;;;5057645;28;20183;-79
2024/02/07 13:31:35;;;;;;;16.75;2.35;;;5.70;99.90;;;;;;5075484;28;20407;-79
2024/02/07 13:34:01;;;;;;;18.13;1.92;;;5.70;99.90;;;;;;5075857;28;20637;-79
2024/02/07 13:36:27;;;;;;;16.50;1.87;;;5.70;99.90;;;;;;5075403;28;20267;-79
2024/02/07 13:38:53;;;;;;;17.10;2.07;;;5.60;99.90;;;;;;4944139;28;3759250;-79
2024/02/07 13:41:20;;;;;;;17.55;2.30;;;5.70;99.90;;;;;;5076658;28;20176;-79
2024/02/07 13:43:46;;;;;;;15.77;1.90;;;5.70;99.90;;;;;;5058679;28;20168;-79
2024/02/07 13:46:12;;;;;;;15.80;2.13;;;5.70;99.90;;;;;;5058747;28;20542;-79